createdAt,value
2022-09-26T00:01:21.138Z,89.92
2022-09-26T00:03:54.165Z,89.98
2022-09-26T00:06:21.856Z,89.94
2022-09-26T00:08:50.164Z,90.08
2022-09-26T00:11:23.311Z,89.75
2022-09-26T00:13:56.391Z,89.93
2022-09-26T00:16:24.337Z,90.07
2022-09-26T00:18:52.949Z,90.02
2022-09-26T00:21:20.732Z,89.96
2022-09-26T00:23:48.279Z,89.84
2022-09-26T00:26:16.518Z,89.83
2022-09-26T00:28:43.361Z,90.03
2022-09-26T00:31:12.882Z,90.62
2022-09-26T00:33:39.750Z,90.94
2022-09-26T00:36:07.114Z,91.02
2022-09-26T00:38:34.173Z,91.09
2022-09-26T00:41:00.990Z,91.35
2022-09-26T00:43:34.665Z,91.51
2022-09-26T00:46:24.361Z,91.75
2022-09-26T00:49:06.036Z,91.77
2022-09-26T00:51:35.069Z,91.92
2022-09-26T00:54:02.983Z,91.71
2022-09-26T00:56:34.116Z,91.69
2022-09-26T00:59:14.277Z,91.87
2022-09-26T01:01:41.701Z,91.72
2022-09-26T01:04:09.411Z,91.54
2022-09-26T01:06:36.501Z,91.48
2022-09-26T01:09:09.006Z,91.34
2022-09-26T01:11:37.322Z,91.02
2022-09-26T01:14:05.458Z,90.78
2022-09-26T01:16:32.479Z,90.27
2022-09-26T01:18:59.020Z,90.15
2022-09-26T01:21:54.234Z,90.26
2022-09-26T01:24:37.017Z,90.14
2022-09-26T01:27:46.476Z,90.29
2022-09-26T01:30:17.987Z,90.20
2022-09-26T01:33:12.516Z,90.29
2022-09-26T01:36:16.710Z,90.37
2022-09-26T01:39:12.135Z,90.39
2022-09-26T01:41:59.317Z,90.31
2022-09-26T01:44:38.913Z,90.65
2022-09-26T01:47:08.238Z,90.66
2022-09-26T01:49:40.194Z,90.71
2022-09-26T01:52:29.250Z,90.67
2022-09-26T01:55:04.788Z,90.63
2022-09-26T01:57:43.424Z,90.55
2022-09-26T02:00:13.856Z,90.65
2022-09-26T02:02:45.325Z,90.72
2022-09-26T02:05:29.858Z,90.45
2022-09-26T02:08:03.633Z,90.50
2022-09-26T02:10:39.346Z,90.60
2022-09-26T02:13:17.609Z,90.41
2022-09-26T02:15:51.529Z,90.48
2022-09-26T02:18:27.075Z,90.22
2022-09-26T02:21:01.035Z,90.36
2022-09-26T02:23:27.538Z,90.54
2022-09-26T02:25:54.279Z,90.63
2022-09-26T02:28:22.110Z,90.46
2022-09-26T02:30:50.399Z,90.87
2022-09-26T02:33:16.866Z,90.48
2022-09-26T02:35:55.687Z,90.70
2022-09-26T02:38:29.108Z,90.95
2022-09-26T02:41:43.673Z,90.95
2022-09-26T02:44:29.045Z,90.71
2022-09-26T02:47:29.146Z,90.67
2022-09-26T02:50:08.305Z,90.79
2022-09-26T02:53:08.765Z,90.90
2022-09-26T02:55:45.152Z,90.89
2022-09-26T02:59:01.861Z,90.94
2022-09-26T03:01:43.918Z,90.83
2022-09-26T03:04:48.008Z,90.89
2022-09-26T03:07:25.906Z,90.87
2022-09-26T03:09:53.141Z,90.68
2022-09-26T03:12:20.676Z,90.78
2022-09-26T03:14:49.402Z,90.61
2022-09-26T03:17:18.780Z,90.81
2022-09-26T03:19:59.624Z,90.52
2022-09-26T03:22:26.337Z,90.58
2022-09-26T03:24:52.667Z,90.44
2022-09-26T03:27:19.958Z,90.36
2022-09-26T03:29:46.448Z,90.34
2022-09-26T03:32:12.924Z,90.19
2022-09-26T03:34:39.863Z,90.01
2022-09-26T03:37:06.787Z,89.91
2022-09-26T03:39:33.140Z,89.58
2022-09-26T03:41:59.496Z,89.36
2022-09-26T03:44:25.876Z,89.16
2022-09-26T03:46:52.268Z,89.13
2022-09-26T03:49:18.642Z,88.99
2022-09-26T03:51:45.870Z,88.65
2022-09-26T03:54:13.100Z,88.46
2022-09-26T03:56:39.508Z,88.18
2022-09-26T03:59:05.913Z,87.81
2022-09-26T04:01:32.328Z,87.79
2022-09-26T04:03:58.759Z,87.43
2022-09-26T04:06:25.200Z,87.36
2022-09-26T04:08:53.190Z,86.90
2022-09-26T04:11:22.968Z,86.87
2022-09-26T04:13:52.375Z,86.91
2022-09-26T04:16:22.449Z,86.54
2022-09-26T04:18:49.288Z,86.68
2022-09-26T04:21:16.023Z,86.40
2022-09-26T04:23:43.910Z,86.59
2022-09-26T04:26:22.790Z,85.87
2022-09-26T04:28:54.785Z,85.99
2022-09-26T04:31:21.875Z,85.87
2022-09-26T04:33:49.092Z,85.83
2022-09-26T04:36:16.549Z,85.84
2022-09-26T04:38:43.009Z,85.41
2022-09-26T04:41:23.173Z,85.15
2022-09-26T04:43:49.537Z,85.17
2022-09-26T04:46:24.551Z,84.84
2022-09-26T04:48:55.318Z,84.87
2022-09-26T04:51:23.924Z,84.58
2022-09-26T04:53:51.190Z,84.36
2022-09-26T04:56:20.654Z,84.35
2022-09-26T04:58:48.041Z,84.30
2022-09-26T05:01:16.780Z,84.65
2022-09-26T05:03:44.159Z,84.60
2022-09-26T05:06:11.678Z,84.39
2022-09-26T05:08:46.326Z,84.43
2022-09-26T05:11:13.901Z,84.41
2022-09-26T05:13:40.237Z,84.39
2022-09-26T05:16:08.763Z,84.42
2022-09-26T05:18:36.028Z,84.08
2022-09-26T05:21:03.613Z,83.96
2022-09-26T05:23:48.774Z,84.21
2022-09-26T05:26:37.669Z,84.53
2022-09-26T05:29:08.726Z,84.44
2022-09-26T05:31:37.742Z,84.66
2022-09-26T05:34:06.008Z,84.64
2022-09-26T05:36:32.341Z,84.67
2022-09-26T05:38:58.884Z,84.59
2022-09-26T05:41:29.377Z,84.62
2022-09-26T05:43:56.470Z,84.68
2022-09-26T05:46:23.796Z,84.87
2022-09-26T05:48:50.502Z,84.83
2022-09-26T05:51:21.003Z,84.68
2022-09-26T05:53:49.360Z,84.59
2022-09-26T05:56:19.646Z,84.72
2022-09-26T05:58:46.721Z,84.53
2022-09-26T06:01:15.262Z,84.55
2022-09-26T06:03:43.648Z,84.74
2022-09-26T06:06:15.578Z,85.07
2022-09-26T06:08:43.148Z,85.08
2022-09-26T06:11:13.724Z,85.53
2022-09-26T06:13:45.760Z,85.68
2022-09-26T06:16:15.043Z,85.53
2022-09-26T06:18:44.155Z,85.79
2022-09-26T06:21:12.172Z,85.64
2022-09-26T06:23:38.765Z,85.48
2022-09-26T06:26:08.398Z,85.64
2022-09-26T06:28:36.569Z,85.66
2022-09-26T06:31:10.756Z,85.34
2022-09-26T06:33:37.125Z,85.62
2022-09-26T06:36:05.978Z,85.28
2022-09-26T06:38:32.801Z,85.36
2022-09-26T06:40:59.185Z,85.46
2022-09-26T06:43:25.700Z,85.48
2022-09-26T06:45:53.240Z,85.40
2022-09-26T06:48:24.515Z,85.29
2022-09-26T06:50:52.966Z,85.23
2022-09-26T06:53:19.484Z,85.19
2022-09-26T06:55:45.903Z,85.15
2022-09-26T06:58:12.456Z,85.02
2022-09-26T07:00:40.411Z,84.92
2022-09-26T07:03:08.153Z,85.00
2022-09-26T07:05:35.010Z,85.14
2022-09-26T07:08:02.368Z,84.80
2022-09-26T07:10:34.611Z,84.41
2022-09-26T07:13:03.970Z,84.52
2022-09-26T07:15:32.962Z,84.62
2022-09-26T07:18:02.553Z,84.40
2022-09-26T07:20:35.653Z,84.61
2022-09-26T07:23:02.838Z,84.30
2022-09-26T07:25:31.594Z,83.93
2022-09-26T07:27:58.823Z,83.80
2022-09-26T07:30:25.751Z,83.59
2022-09-26T07:32:52.104Z,83.32
2022-09-26T07:35:18.513Z,83.36
2022-09-26T07:37:45.057Z,83.34
2022-09-26T07:40:11.989Z,83.51
2022-09-26T07:42:38.752Z,83.49
2022-09-26T07:45:28.887Z,83.69
2022-09-26T07:48:11.089Z,83.83
2022-09-26T07:50:37.983Z,84.03
2022-09-26T07:53:04.382Z,83.89
2022-09-26T07:55:30.746Z,83.99
2022-09-26T07:57:57.888Z,83.92
2022-09-26T08:00:26.284Z,83.93
2022-09-26T08:02:52.837Z,84.28
2022-09-26T08:05:20.172Z,84.08
2022-09-26T08:07:48.588Z,84.16
2022-09-26T08:10:23.965Z,83.90
2022-09-26T08:12:50.687Z,83.76
2022-09-26T08:15:17.245Z,83.85
2022-09-26T08:17:43.803Z,83.96
2022-09-26T08:20:10.852Z,83.69
2022-09-26T08:22:37.632Z,83.50
2022-09-26T08:25:06.773Z,83.40
2022-09-26T08:27:34.293Z,83.50
2022-09-26T08:30:02.659Z,83.33
2022-09-26T08:32:31.034Z,83.05
2022-09-26T08:34:57.457Z,83.16
2022-09-26T08:37:31.055Z,83.38
2022-09-26T08:39:57.764Z,83.27
2022-09-26T08:42:38.792Z,83.95
2022-09-26T08:45:55.805Z,84.49
2022-09-26T08:48:44.325Z,84.99
2022-09-26T08:51:29.861Z,85.47
2022-09-26T08:54:09.364Z,85.92
2022-09-26T08:56:43.180Z,86.48
2022-09-26T08:59:23.163Z,86.83
2022-09-26T09:01:52.777Z,87.18
2022-09-26T09:04:41.126Z,87.49
2022-09-26T09:07:20.201Z,87.69
2022-09-26T09:09:46.731Z,87.88
2022-09-26T09:12:44.780Z,88.39
2022-09-26T09:15:25.688Z,88.03
2022-09-26T09:18:13.585Z,88.46
2022-09-26T09:21:03.491Z,88.71
2022-09-26T09:23:32.718Z,88.75
2022-09-26T09:29:02.729Z,89.23
2022-09-26T09:31:35.213Z,89.34
2022-09-26T09:34:11.314Z,89.52
2022-09-26T09:36:42.988Z,89.82
2022-09-26T09:39:16.814Z,90.42
2022-09-26T09:41:51.457Z,90.59
2022-09-26T09:44:26.500Z,90.38
2022-09-26T09:46:52.968Z,90.30
2022-09-26T09:49:27.347Z,90.00
2022-09-26T09:52:19.976Z,90.18
2022-09-26T09:54:55.558Z,90.41
2022-09-26T09:57:43.376Z,90.56
2022-09-26T10:00:17.449Z,90.30
2022-09-26T10:03:19.097Z,89.75
2022-09-26T10:05:48.259Z,89.60
2022-09-26T10:08:22.539Z,89.66
2022-09-26T10:11:11.496Z,89.44
2022-09-26T10:13:42.136Z,89.42
2022-09-26T10:16:11.761Z,89.25
2022-09-26T10:19:04.021Z,88.85
2022-09-26T10:21:37.226Z,88.37
2022-09-26T10:24:04.733Z,88.33
2022-09-26T10:26:36.384Z,88.18
2022-09-26T10:29:21.804Z,88.41
2022-09-26T10:31:55.557Z,88.41
2022-09-26T10:34:27.493Z,88.54
2022-09-26T10:36:54.106Z,88.84
2022-09-26T10:39:44.149Z,89.36
2022-09-26T10:42:20.042Z,89.38
2022-09-26T10:44:48.505Z,89.75
2022-09-26T10:47:22.839Z,90.07
2022-09-26T10:49:52.948Z,90.20
2022-09-26T10:52:30.027Z,90.39
2022-09-26T10:55:12.356Z,90.44
2022-09-26T10:58:01.206Z,90.55
2022-09-26T11:00:33.738Z,90.84
2022-09-26T11:03:00.592Z,91.02
2022-09-26T11:05:45.684Z,91.21
2022-09-26T11:08:14.037Z,91.47
2022-09-26T11:10:41.965Z,91.71
2022-09-26T11:13:19.571Z,92.03
2022-09-26T11:15:52.581Z,92.22
2022-09-26T11:18:39.561Z,92.48
2022-09-26T11:21:47.961Z,92.51
2022-09-26T11:24:54.874Z,92.74
2022-09-26T11:27:31.693Z,92.52
2022-09-26T11:30:09.933Z,92.62
2022-09-26T11:32:47.283Z,92.66
2022-09-26T11:35:17.511Z,92.66
2022-09-26T11:38:05.433Z,92.75
2022-09-26T11:41:00.028Z,93.05
2022-09-26T11:43:57.924Z,93.07
2022-09-26T11:46:47.349Z,93.03
2022-09-26T11:49:30.200Z,93.17
2022-09-26T11:52:21.812Z,93.18
2022-09-26T11:55:08.082Z,93.13
2022-09-26T11:57:45.230Z,93.35
2022-09-26T12:00:16.016Z,93.33
2022-09-26T12:02:48.928Z,93.05
2022-09-26T12:05:29.109Z,93.05
2022-09-26T12:07:58.925Z,93.10
2022-09-26T12:10:41.673Z,93.28
2022-09-26T12:13:34.407Z,93.25
2022-09-26T12:16:09.478Z,93.30
2022-09-26T12:18:56.573Z,93.40
2022-09-26T12:21:37.224Z,93.75
2022-09-26T12:24:23.887Z,93.56
2022-09-26T12:26:58.743Z,93.51
2022-09-26T12:30:02.416Z,93.73
2022-09-26T12:33:00.513Z,93.95
2022-09-26T12:35:50.720Z,94.01
2022-09-26T12:38:40.200Z,93.82
2022-09-26T12:41:14.180Z,93.92
2022-09-26T12:44:05.350Z,94.00
2022-09-26T12:47:21.157Z,93.93
2022-09-26T12:49:50.585Z,93.74
2022-09-26T12:52:38.370Z,93.84
2022-09-26T12:55:27.951Z,93.99
2022-09-26T12:58:00.977Z,93.66
2022-09-26T13:00:36.241Z,93.95
2022-09-26T13:03:21.481Z,94.20
2022-09-26T13:06:08.853Z,94.24
2022-09-26T13:08:53.297Z,94.41
2022-09-26T13:11:45.786Z,94.33
2022-09-26T13:14:37.677Z,94.44
2022-09-26T13:17:28.303Z,94.43
2022-09-26T13:20:32.258Z,94.44
2022-09-26T13:23:07.923Z,94.59
2022-09-26T13:25:50.025Z,94.78
2022-09-26T13:28:24.093Z,94.84
2022-09-26T13:30:57.928Z,94.87
2022-09-26T13:33:43.756Z,94.61
2022-09-26T13:36:12.490Z,94.81
2022-09-26T13:39:09.597Z,94.79
2022-09-26T13:41:54.994Z,94.92
2022-09-26T13:44:36.279Z,95.18
2022-09-26T13:47:21.344Z,95.57
2022-09-26T13:49:51.181Z,96.06
2022-09-26T13:52:48.033Z,96.30
2022-09-26T13:55:20.024Z,96.31
2022-09-26T13:58:08.282Z,96.47
2022-09-26T14:00:40.898Z,96.38
2022-09-26T14:03:10.303Z,96.17
2022-09-26T14:05:49.887Z,96.07
2022-09-26T14:08:44.302Z,96.54
2022-09-26T14:11:45.214Z,96.18
2022-09-26T14:14:23.972Z,95.01
2022-09-26T14:16:56.693Z,94.06
2022-09-26T14:19:36.166Z,93.51
2022-09-26T14:22:25.576Z,93.41
2022-09-26T14:24:52.346Z,93.16
2022-09-26T14:27:18.889Z,93.12
2022-09-26T14:30:29.146Z,92.69
2022-09-26T14:33:02.974Z,92.68
2022-09-26T14:35:34.805Z,92.87
2022-09-26T14:38:20.074Z,93.01
2022-09-26T14:40:58.484Z,93.26
2022-09-26T14:43:28.830Z,93.44
2022-09-26T14:46:05.153Z,93.54
2022-09-26T14:48:37.417Z,93.51
2022-09-26T14:51:10.353Z,93.57
2022-09-26T14:53:43.978Z,93.71
2022-09-26T14:56:16.360Z,93.59
2022-09-26T14:58:48.237Z,93.83
2022-09-26T15:01:37.277Z,93.90
2022-09-26T15:04:15.026Z,93.80
2022-09-26T15:06:46.327Z,93.80
2022-09-26T15:09:21.653Z,93.89
2022-09-26T15:11:55.089Z,94.29
2022-09-26T15:14:31.358Z,94.56
2022-09-26T15:17:01.207Z,94.88
2022-09-26T15:19:34.715Z,95.16
2022-09-26T15:22:06.127Z,95.45
2022-09-26T15:24:35.771Z,95.64
2022-09-26T15:27:29.164Z,95.79
2022-09-26T15:30:06.989Z,95.88
2022-09-26T15:32:33.729Z,95.49
2022-09-26T15:35:02.170Z,94.76
2022-09-26T15:37:32.002Z,94.81
2022-09-26T15:40:19.332Z,94.53
2022-09-26T15:42:58.227Z,94.29
2022-09-26T15:45:30.355Z,94.20
2022-09-26T15:48:05.492Z,94.31
2022-09-26T15:50:34.845Z,94.49
2022-09-26T15:53:20.100Z,94.35
2022-09-26T15:55:51.492Z,94.42
2022-09-26T15:58:40.088Z,94.67
2022-09-26T16:01:14.280Z,94.93
2022-09-26T16:03:45.680Z,94.90
2022-09-26T16:06:25.577Z,95.21
2022-09-26T16:09:00.959Z,94.97
2022-09-26T16:11:28.453Z,95.13
2022-09-26T16:13:56.543Z,95.37
2022-09-26T16:16:32.236Z,95.29
2022-09-26T16:19:03.816Z,95.15
2022-09-26T16:21:33.982Z,95.14
2022-09-26T16:24:22.349Z,94.93
2022-09-26T16:26:50.294Z,94.99
2022-09-26T16:29:31.332Z,94.73
2022-09-26T16:31:59.390Z,94.83
2022-09-26T16:34:26.128Z,94.75
2022-09-26T16:36:53.387Z,94.50
2022-09-26T16:39:23.205Z,94.06
2022-09-26T16:42:01.706Z,94.14
2022-09-26T16:44:41.015Z,94.20
2022-09-26T16:47:49.223Z,94.23
2022-09-26T16:50:28.714Z,94.24
2022-09-26T16:52:55.966Z,94.33
2022-09-26T16:55:24.396Z,94.14
2022-09-26T16:57:54.917Z,94.10
2022-09-26T17:00:42.798Z,94.14
2022-09-26T17:03:23.103Z,94.13
2022-09-26T17:05:51.402Z,94.09
2022-09-26T17:08:19.518Z,94.55
2022-09-26T17:10:46.442Z,94.75
2022-09-26T17:13:23.761Z,94.81
2022-09-26T17:15:54.605Z,94.99
2022-09-26T17:18:28.834Z,94.99
2022-09-26T17:20:56.759Z,95.16
2022-09-26T17:23:39.360Z,95.39
2022-09-26T17:26:07.626Z,95.38
2022-09-26T17:28:40.214Z,95.54
2022-09-26T17:31:10.002Z,95.63
2022-09-26T17:33:40.437Z,95.67
2022-09-26T17:36:10.669Z,95.69
2022-09-26T17:38:41.068Z,95.60
2022-09-26T17:41:12.375Z,95.69
2022-09-26T17:43:39.792Z,95.71
2022-09-26T17:46:11.465Z,95.62
2022-09-26T17:48:41.665Z,95.80
2022-09-26T17:51:13.521Z,95.51
2022-09-26T17:53:49.541Z,95.54
2022-09-26T17:56:16.678Z,95.66
2022-09-26T17:58:44.697Z,95.51
2022-09-26T18:01:22.116Z,95.72
2022-09-26T18:03:51.750Z,95.86
2022-09-26T18:06:21.803Z,95.82
2022-09-26T18:08:48.727Z,95.85
2022-09-26T18:11:17.809Z,95.89
2022-09-26T18:13:55.272Z,95.97
2022-09-26T18:16:22.854Z,96.00
2022-09-26T18:18:50.069Z,96.00
2022-09-26T18:21:18.693Z,96.01
2022-09-26T18:23:52.056Z,96.01
2022-09-26T18:26:38.016Z,96.24
2022-09-26T18:29:08.044Z,96.04
2022-09-26T18:31:39.455Z,96.02
2022-09-26T18:34:11.286Z,96.01
2022-09-26T18:36:37.664Z,95.98
2022-09-26T18:39:04.271Z,95.81
2022-09-26T18:41:30.645Z,95.84
2022-09-26T18:44:00.473Z,95.90
2022-09-26T18:46:29.135Z,95.88
2022-09-26T18:49:00.159Z,95.79
2022-09-26T18:51:27.216Z,95.94
2022-09-26T18:53:53.801Z,95.94
2022-09-26T18:56:38.743Z,95.95
2022-09-26T18:59:05.289Z,95.84
2022-09-26T19:01:35.000Z,95.78
2022-09-26T19:04:05.708Z,95.93
2022-09-26T19:06:35.800Z,95.90
2022-09-26T19:09:04.936Z,95.98
2022-09-26T19:11:34.457Z,96.01
2022-09-26T19:14:23.196Z,96.05
2022-09-26T19:16:50.325Z,96.12
2022-09-26T19:19:17.899Z,96.10
2022-09-26T19:21:48.337Z,96.25
2022-09-26T19:24:26.852Z,96.27
2022-09-26T19:26:56.973Z,96.29
2022-09-26T19:29:40.466Z,96.37
2022-09-26T19:32:16.419Z,96.39
2022-09-26T19:34:46.822Z,96.28
2022-09-26T19:37:13.992Z,96.13
2022-09-26T19:39:40.508Z,96.08
2022-09-26T19:42:06.860Z,96.16
2022-09-26T19:44:34.150Z,96.36
2022-09-26T19:47:02.004Z,96.48
2022-09-26T19:49:29.907Z,96.82
2022-09-26T19:51:56.585Z,97.02
2022-09-26T19:54:23.229Z,97.07
2022-09-26T19:56:49.633Z,97.23
2022-09-26T19:59:17.209Z,97.21
2022-09-26T20:01:46.438Z,97.38
2022-09-26T20:04:15.567Z,97.13
2022-09-26T20:06:41.999Z,97.25
2022-09-26T20:09:17.679Z,97.17
2022-09-26T20:11:44.549Z,97.16
2022-09-26T20:14:26.141Z,97.46
2022-09-26T20:16:55.429Z,97.56
2022-09-26T20:19:28.527Z,97.56
2022-09-26T20:21:59.748Z,97.56
2022-09-26T20:24:27.709Z,97.61
2022-09-26T20:26:54.943Z,97.54
2022-09-26T20:29:21.285Z,97.84
2022-09-26T20:31:47.699Z,97.91
2022-09-26T20:34:15.877Z,98.01
2022-09-26T20:36:47.491Z,98.03
2022-09-26T20:39:22.861Z,98.21
2022-09-26T20:41:50.474Z,97.99
2022-09-26T20:44:21.202Z,98.19
2022-09-26T20:46:50.225Z,98.06
2022-09-26T20:49:23.631Z,98.00
2022-09-26T20:51:51.246Z,98.04
2022-09-26T20:54:25.226Z,98.02
2022-09-26T20:56:53.298Z,98.27
2022-09-26T20:59:19.862Z,98.25
2022-09-26T21:01:46.414Z,98.17
2022-09-26T21:04:15.820Z,98.22
2022-09-26T21:06:42.674Z,98.16
2022-09-26T21:09:18.549Z,98.19
2022-09-26T21:11:48.065Z,98.28
2022-09-26T21:14:15.762Z,98.29
2022-09-26T21:16:52.161Z,98.17
2022-09-26T21:19:24.882Z,98.09
2022-09-26T21:21:51.994Z,98.49
2022-09-26T21:24:25.299Z,98.15
2022-09-26T21:26:52.015Z,97.99
2022-09-26T21:29:18.605Z,98.14
2022-09-26T21:31:49.182Z,98.32
2022-09-26T21:34:22.266Z,98.30
2022-09-26T21:36:50.557Z,98.36
2022-09-26T21:39:18.971Z,98.39
2022-09-26T21:41:49.347Z,98.44
2022-09-26T21:44:30.918Z,98.50
2022-09-26T21:46:57.573Z,98.44
2022-09-26T21:49:24.883Z,98.26
2022-09-26T21:51:57.561Z,98.37
2022-09-26T21:54:34.467Z,98.44
2022-09-26T21:57:07.643Z,98.49
2022-09-26T21:59:37.808Z,98.41
2022-09-26T22:02:04.361Z,98.53
2022-09-26T22:04:30.732Z,98.41
2022-09-26T22:06:57.549Z,98.53
2022-09-26T22:09:23.933Z,98.79
2022-09-26T22:11:50.334Z,98.74
2022-09-26T22:14:16.699Z,98.75
2022-09-26T22:16:43.214Z,98.67
2022-09-26T22:19:10.300Z,98.65
2022-09-26T22:21:36.761Z,98.95
2022-09-26T22:24:03.301Z,99.13
2022-09-26T22:26:29.708Z,99.02
2022-09-26T22:28:56.250Z,99.08
2022-09-26T22:31:22.689Z,99.18
2022-09-26T22:33:49.252Z,98.91
2022-09-26T22:36:16.260Z,99.04
2022-09-26T22:38:42.780Z,98.92
2022-09-26T22:41:09.225Z,99.12
2022-09-26T22:43:36.139Z,98.96
2022-09-26T22:46:03.699Z,99.16
2022-09-26T22:48:31.768Z,98.84
2022-09-26T22:50:58.144Z,99.12
2022-09-26T22:53:24.490Z,98.86
2022-09-26T22:55:55.537Z,98.94
2022-09-26T22:58:23.699Z,98.90
2022-09-26T23:00:50.245Z,98.89
2022-09-26T23:03:17.359Z,98.94
2022-09-26T23:05:47.310Z,98.82
2022-09-26T23:08:13.906Z,98.76
2022-09-26T23:10:48.143Z,98.90
2022-09-26T23:13:14.476Z,99.00
2022-09-26T23:15:40.870Z,98.95
2022-09-26T23:18:07.457Z,98.71
2022-09-26T23:20:33.872Z,98.96
2022-09-26T23:23:00.539Z,98.64
2022-09-26T23:25:26.898Z,99.06
2022-09-26T23:27:53.355Z,98.96
2022-09-26T23:30:19.730Z,98.77
2022-09-26T23:32:46.198Z,98.90
2022-09-26T23:35:12.545Z,99.17
2022-09-26T23:37:39.095Z,98.81
2022-09-26T23:40:05.967Z,98.70
2022-09-26T23:42:32.299Z,98.71
2022-09-26T23:44:58.655Z,98.97
2022-09-26T23:47:25.401Z,98.78
2022-09-26T23:49:51.883Z,98.74
2022-09-26T23:52:18.285Z,98.49
2022-09-26T23:54:44.623Z,98.63
2022-09-26T23:57:11.000Z,98.60
2022-09-26T23:59:37.363Z,98.94
